Accueil
METAR-TAF:

METAR-TAF

Aéroports :

Base aérienne de Thulé

Thulé, Groenland

latitude: 76-32N, longitude: 068-42W, altitude: 77 m

Observation

Le bulletin a été fait il y a 1 heure et 1 minutes, à 10:56 UTC
Vent calme
Température -14°C
Humidité 78%
Pression 1019 hPa
Visibilité 10 km ou plus
Nuages épars à une hauteur de 5000 ft
Ciel couvert à une hauteur de 8000 ft

METAR: BGTL 181056Z AUTO 00000KT 9999 SCT050 OVC080 M14/M17 A3010 RMK AO2 SLP183 T11391169 TSNO $

Heure: 08:57 (11:57 UTC)


TAF: absent

Observations et prévisions météorologiques de plus de 4000 aéroports (messages METAR et TAF).

Les stations disponibles sont représentées par des disques jaunes et rouges sur la carte.

Passer la souris dessus pour voir le nom de la station.

Cliquer dessus pour voir les observations et prévisions météorologiques.

Pour changer de carte: cliquez sur les boutons verts avec une croix noire pour zoomer, sur le bouton vert avec un tiret pour effectuer un zoom arrière, ou sur les flèches vertes pour les cartes adjacentes.


METAR-TAF: